Skip Navigation LinksHome page > Weather > Current weather Skip Navigation Links

Current Weather

Eureka, Nunavut

For information only: do not use for flight planning or navigation.
Latest weather
Observation time Friday, August 18, 2017 10:00 PM CDT
Local time Saturday, August 19, 2017 12:20 AM CDT
Flight conditions Visual Meteorological Conditions
Winds
Wind direction South (180°)
Wind speed 7 mph
Visibility 15 mi.
Sky condition
Ceiling 26,000 ft. broken clouds
Cloud layer broken clouds 26,000 ft.
Temperature 41°F
Dewpoint 28°F
Altimeter 29.90 in.Hg
Derived measurements
Relative humidity 61%
Wind chill 36°F
Density altitude -1069 ft.
Sea-level pressure 29.90 in.Hg
Remarks
Last observation of the day.
METAR CWEU 190300Z 18006KT 15SM BKN260 05/M02 A2990 RMK CS7 LAST OBS/NEXT 190600 UTC SLP126

Settings

Location code

InnerDrive.Weather 4.0.6144.1 Release CLR 4.0.30319.36366
Copyright ©2015 Inner Drive Technology. All rights reserved. Portions Copyright ©1986-2015 David Braverman.

Find weather

Site navigation


Skip Navigation Links

Place info

Page info

PayPal - The safer, easier way to pay online!

Return home.

Copyright ©2017 Inner Drive Technology. Purveyors of fine, hand-crafted computer software. Page printed 2017-08-19T05:20:27 UTC.